Погода Новая Целинана 2 недели

Ростовская область, Россия

21 мая-03 июня
  • 21мая
    Сегодня
    +12°
    +26°
    Ясно и безоблачно
    ВремяПогодаТемператураВлажностьДавлениеВетер, м/сВероятность осадков
    00:00Ясно и безоблачно+14°C71 %753 мм2.1 м/с2 %
    03:00Ясно и безоблачно+13°C81 %753 мм2.6 м/с2 %
    06:00Ясно и безоблачно+14°C72 %754 мм2.7 м/с2 %
    09:00Ясно и безоблачно+21°C48 %754 мм2.0 м/с2 %
    12:00Ясно и безоблачно+25°C32 %754 мм3.5 м/с2 %
    15:00Ясно и безоблачно+25°C27 %754 мм3.2 м/с2 %
    18:00Ясно и безоблачно+24°C36 %753 мм2.8 м/с2 %
    21:00Ясно и безоблачно+17°C39 %753 мм2.6 м/с2 %
  • 22мая
    Среда
    +11°
    +26°
    Ясно и безоблачно
    ВремяПогодаТемператураВлажностьДавлениеВетер, м/сВероятность осадков
    00:00Ясно и безоблачно+15°C56 %753 мм2.5 м/с2 %
    03:00Ясно и безоблачно+13°C57 %753 мм2.6 м/с2 %
    06:00Ясно и безоблачно+14°C59 %753 мм3.0 м/с2 %
    09:00Ясно и безоблачно+21°C45 %753 мм3.3 м/с2 %
    12:00Ясно и безоблачно+25°C29 %753 мм4.6 м/с2 %
    15:00Ясно и безоблачно+26°C25 %752 мм5.3 м/с2 %
    18:00Ясно и безоблачно+24°C32 %751 мм3.7 м/с2 %
    21:00Ясно и безоблачно+18°C44 %751 мм2.4 м/с2 %
  • 23мая
    Четверг
    +14°
    +26°
    Ясно и безоблачно
    ВремяПогодаТемператураВлажностьДавлениеВетер, м/сВероятность осадков
    00:00Ясно и безоблачно+16°C53 %751 мм2.9 м/с2 %
    03:00Ясно и безоблачно+13°C58 %750 мм2.7 м/с2 %
    06:00Ясно и безоблачно+13°C62 %751 мм3.4 м/с2 %
    09:00Ясно и безоблачно+20°C47 %751 мм3.7 м/с2 %
    12:00Ясно и безоблачно+24°C30 %751 мм5.4 м/с2 %
    15:00Ясно и безоблачно+26°C25 %750 мм5.6 м/с2 %
    18:00Ясно и безоблачно+24°C30 %750 мм3.8 м/с2 %
    21:00Ясно и безоблачно+18°C41 %750 мм3.1 м/с2 %
  • 24мая
    Пятница
    +12°
    +26°
    Ясно и безоблачно
    ВремяПогодаТемператураВлажностьДавлениеВетер, м/сВероятность осадков
    00:00Ясно и безоблачно+17°C46 %750 мм4.3 м/с2 %
    03:00Ясно и безоблачно+15°C56 %751 мм5.0 м/с2 %
    06:00Ясно и безоблачно+16°C68 %752 мм6.0 м/с2 %
    09:00Ясно и безоблачно+20°C53 %753 мм7.2 м/с2 %
    12:00Ясно и безоблачно+24°C40 %754 мм8.2 м/с2 %
    15:00Ясно и безоблачно+25°C34 %753 мм8.5 м/с5 %
    18:00Ясно и безоблачно+23°C33 %754 мм8.3 м/с5 %
    21:00Ясно и безоблачно+19°C22 %756 мм7.8 м/с2 %
  • 25мая
    Суббота
    +13°
    +22°
    Облачно с прояснениями
    ВремяПогодаТемператураВлажностьДавлениеВетер, м/сВероятность осадков
    00:00Ясно и безоблачно+16°C25 %756 мм7.6 м/с2 %
    03:00Ясно и безоблачно+13°C29 %757 мм7.4 м/с2 %
    06:00Ясно и безоблачно+12°C35 %757 мм7.3 м/с2 %
    09:00Ясно и безоблачно+17°C33 %758 мм8.4 м/с2 %
    12:00Ясно и безоблачно+20°C23 %757 мм8.8 м/с2 %
    15:00Облачно с прояснениями+22°C20 %756 мм8.9 м/с2 %
    18:00Облачно с прояснениями+20°C21 %756 мм7.6 м/с9 %
    21:00Ясно и безоблачно+18°C22 %756 мм7.3 м/с10 %
Мы используем cookies
Соглашаюсь